Aviation Digital Data Service (ADDS)

Output produced by METARs form (0458 UTC 18 February 2018)
found at http://www.aviationweather.gov/adds/metars/
 
KMGW 180453Z AUTO 20004KT 5SM -RA OVC003 A3004 RMK AO2 SLPNO P0000 400391028 $
KMGW 180443Z AUTO 22005KT 3SM -RA OVC003 A3005 RMK AO2 P0000
KMGW 180415Z AUTO 20005KT 2 1/2SM -RA BR OVC003 01/M01 A3003 RMK AO2 P0000 T00061006 $
KMGW 180405Z AUTO 20003KT 1 1/2SM -RA BR OVC003 01/M01 A3003 RMK AO2 P0000 T00061006 $
KMGW 180353Z 20003KT 1/2SM -RA FG VV002 01/M01 A3003 RMK AO2 RAB04 SLP178 P0001 T00061006 $
KMGW 180318Z 19004KT 1/2SM -RA FG VV004 00/M01 A3002 RMK AO2 RAB04 P0000 T00001006 $
KMGW 180253Z 18003KT 1/2SM FG VV005 00/M01 A3002 RMK AO2 SNE0154 SLP178 P0001 60005 T00001006 53006
KMGW 180153Z 00000KT 3/4SM -SN BR BKN009 OVC013 00/M01 A3002 RMK AO2 RAE07SNB07 SLP177 P0002 T00001006
KMGW 180145Z 00000KT 3/4SM -SN BR BKN009 OVC015 00/M01 A3002 RMK AO2 RAE07SNB07 P0002 T00001006
KMGW 180137Z 00000KT 1 1/4SM -SN BR FEW009 OVC013 00/00 A3001 RMK AO2 RAE07SNB07 P0002 T00000000
KMGW 180120Z 00000KT 1 3/4SM -SN BR OVC013 00/00 A3000 RMK AO2 RAE07SNB07 P0002 T00000000
KMGW 180107Z 00000KT 2SM -SN BR OVC011 01/00 A3000 RMK AO2 RAE07SNB07 P0001 T00060000
KMGW 180053Z 00000KT 3SM -RA BR OVC010 01/M01 A3001 RMK AO2 RAB2355SNE2355 SLP173 P0002 T00061006
KMGW 172356Z 00000KT 5SM -RA BR BKN014 OVC024 01/M01 A2999 RMK AO2 RAB55SNE55 P0000 T00061006
KMGW 172353Z 00000KT 5SM -SN BR SCT014 OVC024 01/00 A2998 RMK AO2 SLP166 P0003 60036 I6000 T00060000 10039 20000 58013
KMGW 172333Z 00000KT 6SM -SN BR OVC024 01/M01 A2997 RMK AO2 P0003 T00061006
KMGW 172326Z 00000KT 1SM -SN BR OVC024 01/M01 A2997 RMK AO2 P0003 T00061006
KMGW 172317Z 19003KT 2SM -SN BR FEW001 OVC020 00/M01 A2996 RMK AO2 P0002 T00001006
KMGW 172309Z 16004KT 1 1/2SM -SN BR FEW002 OVC012 00/M01 A2996 RMK AO2 PRESFR P0002 T00001006
KMGW 172259Z 15005KT 1/2SM -SN FG FEW002 OVC010 00/M01 A2998 RMK AO2 PRESFR P0001 T00001011
KMGW 172253Z 16006KT 1/4SM -SN FG FEW002 OVC006 00/M01 A2999 RMK AO2 SLP168 P0008 T00001011
KMGW 172228Z 16003KT 3/4SM -SN BR FEW004 OVC013 00/M01 A3002 RMK AO2 P0005 T00001006
KMGW 172153Z 00000KT 3/4SM -SN BR VV014 00/M01 A3002 RMK AO2 UPB34E51SNE34B51 SLP177 P0010 I1000 T00001006
KMGW 172148Z 00000KT 1/2SM UP FG VV014 00/M01 A3002 RMK AO2 UPB34SNE34 P0010 I1000
KMGW 172144Z 00000KT 1/4SM UP FG VV015 00/M01 A3002 RMK AO2 UPB34SNE34 P0009 T00001006
KMGW 172121Z 00000KT 1/2SM -SN FG VV010 00/00 A3001 RMK AO2 P0005 T00000000
KMGW 172053Z 00000KT 1/4SM SN FG VV005 00/M01 A3002 RMK AO2 SLP178 P0013 60015 T00001006 56035
KMGW 172024Z 00000KT 1/4SM -SN FG VV004 00/M01 A3003 RMK AO2 P0007 T00001011
KMGW 171959Z 36004KT 1/4SM SN BR VV009 01/M02 A3004 RMK AO2 P0002 T00061017
KMGW 171953Z 02003KT 1/2SM SN BR VV012 01/M02 A3004 RMK AO2 SNB36 SLP184 P0002 T00111022
KMGW 171950Z 02004KT 1/2SM SN BR VV014 02/M02 A3004 RMK AO2 SNB36 P0001
KMGW 171936Z 33004KT 2SM SN OVC026 03/M02 A3005 RMK AO2 SNB36 P0000 T00331022
KMGW 171853Z 12006KT 10SM SCT065 BKN080 OVC095 03/M03 A3003 RMK AO2 SLP181 T00331028
KMGW 171753Z 04005KT 10SM FEW090 OVC120 04/M03 A3013 RMK AO2 SLP213 T00391028 10039 21028 55016
KMGW 171653Z 00000KT 10SM OVC110 03/M03 A3012 RMK AO2 SLP212 T00281028
KMGW 171553Z 09005KT 10SM CLR 03/M03 A3016 RMK AO2 SLP223 T00281033
KMGW 171453Z 07003KT 10SM CLR 01/M04 A3018 RMK AO2 SLP231 T00111039 58025
KMGW 171353Z 35003KT 10SM CLR M01/M05 A3022 RMK AO2 SLP244 T10061050
KMGW 171253Z 01003KT 10SM CLR M02/M06 A3024 RMK AO2 SLP252 T10221056
KMGW 171153Z 05003KT 10SM CLR M03/M06 A3025 RMK AO2 SLP258 70058 T10281061 11011 21028 56011
KMGW 171053Z AUTO 00000KT 10SM CLR M03/M07 A3026 RMK AO2 SLP261 T10281067
KMGW 170953Z AUTO 00000KT 10SM OVC032 M02/M07 A3028 RMK AO2 SLP264 T10171067
KMGW 170934Z AUTO 04003KT 10SM OVC031 M02/M07 A3028 RMK AO2 T10171067
KMGW 170853Z AUTO 06003KT 10SM OVC029 M01/M06 A3029 RMK AO2 SLP268 T10111061 51004
KMGW 170753Z AUTO 04003KT 10SM OVC028 M01/M07 A3028 RMK AO2 SLP267 T10111067
KMGW 170653Z AUTO 01004KT 10SM OVC027 M01/M07 A3028 RMK AO2 SLP265 T10111067
KMGW 170553Z AUTO 00000KT 10SM OVC027 M01/M06 A3027 RMK AO2 SLP261 T10111061 10011 21011 51011